Airfield :
LOGIN :

Register | Disclaimer

   EN    FR    IT 

 










Legend :    VFR   Marginal VFR   IFR   Intensive IFR   Very Intensive IFR
Visi :
Ceiling :
>= 8 km
>= 3000ft
5 to 8 km
1000 to 3000 ft
1500m to 5 km
500 to 1000 ft
800 to 1500m
200 to 500 ft
< 800m
< 200 ft
Symbols :   Thunderstorms  Fog  Heavy snow  Heavy precipitations  Wind > 20 kt
SIGMETs :     Misc.  Thunderstorms  Icing  Turbulence  Mountain Waves  Volcanic Ashes







- Airport Elevation : 1521 ft
- IATA code : NCY
- Download approach charts


LFLP - Annecy

CURRENT METAR :
  • 251800Z AUTO VRB02KT 9999 ////// 11/09 Q1006

EXPIRED METARs :
  • 251730Z AUTO VRB02KT 9999 ////// 10/09 Q1006
  • 251700Z AUTO 00000KT 9000 -RA ////// 10/08 Q1007
  • 251630Z AUTO VRB01KT 9000 -RA ////// 11/09 Q1007
  • 251600Z AUTO 30003KT 230V340 9000 -RA ////// 11/08 Q1007
  • 251530Z AUTO 25004KT 200V300 9999 -RADZ ////// 11/08 Q1007

TAF TAF LFLP
Valid from the 25 at 15:00 until the 26 at 15:00 UTC


251400Z 2515/2615 22008KT 9999 RA OVC025
TEMPO 2522/2602 3000 RA SCT020TCU
PROB40
TEMPO 2603/2608 BKN005
BECMG 2608/2610 NSW SCT010 BKN030
PROB30
TEMPO 2612/2615 RA
No reported NOTAMs for that airfield.



MET'MAP, your aeronautical weather chart ! - Copyright ORBIFLY December 2007 - Disclaimer

ORBIFLY MET'MAP TEAM :

Programming & Development : Alexandra Zaïnal
Concept & Development : Baudouin d'Aumeries
Co-Development & Prog : Marc-Olivier Méhu
Technical & hardware support : Manuel Goepfert

Contact : metmap@orbifly.com




SOURCES & CREDITS :

   NOAA